Terminal Aerodrome Forecast
Issued by NWS

Home | Current Version | Previous Version | Text Only | Print | Product List | Glossary On
Versions: 1 2 3 4 5 6 7 8 9 10 11 12 13
000
FTUS42 KMLB 251700
TAFSFB
TAF
KSFB 251738Z 2518/2618 22008KT P6SM VCTS SCT030CB SCT080 SCT250
      TEMPO 2519/2521 3SM TSRA SCT020 BKN035CB OVC050
     FM252300 21003KT P6SM FEW040 BKN250
     FM261400 25005KT P6SM SCT030 SCT250=

USA.gov is the U.S. government's official web portal to all federal, state and local government web resources and services.